Time;durP1;ratioP1;P1;durP2;ratioP2;P2;SDS_P1;SDS_P2;PMS_P1;PMS_P2;Temp;Humidity;BMP_temperature;BMP_pressure;BME280_temperature;BME280_humidity;BME280_pressure;Samples;Min_cycle;Max_cycle;Signal;HPM_P1;HPM_P2
2022/06/08 00:00:02;;;;;;;69.40;42.53;;;;;;;;;;6250054;22;20487;-71
2022/06/08 00:02:37;;;;;;;84.22;51.22;;;;;;;;;;6252143;22;20023;-71
2022/06/08 00:05:05;;;;;;;131.65;82.60;;;;;;;;;;6249589;22;20051;-71
2022/06/08 00:07:33;;;;;;;90.80;54.03;;;;;;;;;;6276977;22;20012;-71
2022/06/08 00:10:00;;;;;;;50.83;28.27;;;;;;;;;;6276793;22;20027;-71
2022/06/08 00:12:28;;;;;;;45.10;29.83;;;;;;;;;;6277157;22;20020;-71
2022/06/08 00:14:55;;;;;;;14.57;8.80;;;;;;;;;;6276404;22;20039;-71
2022/06/08 00:17:23;;;;;;;12.02;7.97;;;;;;;;;;6276849;22;20011;-71
2022/06/08 00:19:51;;;;;;;11.57;8.10;;;;;;;;;;6276791;22;20030;-71
2022/06/08 00:22:18;;;;;;;11.02;8.10;;;;;;;;;;6276693;22;20016;-71
2022/06/08 00:24:46;;;;;;;9.27;6.90;;;;;;;;;;6276632;22;20047;-71
2022/06/08 00:27:13;;;;;;;9.20;5.82;;;;;;;;;;6276694;22;20027;-70
2022/06/08 00:29:41;;;;;;;8.70;5.60;;;;;;;;;;6249557;22;20019;-71
2022/06/08 00:32:09;;;;;;;8.43;5.35;;;;;;;;;;6276418;22;20015;-71
2022/06/08 00:34:36;;;;;;;8.30;5.40;;;;;;;;;;6249433;22;20047;-71
2022/06/08 00:37:04;;;;;;;8.30;5.50;;;;;;;;;;6276657;22;20335;-71
2022/06/08 00:39:32;;;;;;;8.80;5.75;;;;;;;;;;6249208;22;20019;-70
2022/06/08 00:42:04;;;;;;;8.50;5.15;;;;;;;;;;6249424;22;20016;-71
2022/06/08 00:44:34;;;;;;;10.35;5.70;;;;;;;;;;6249147;22;20030;-70
2022/06/08 00:47:03;;;;;;;10.68;5.95;;;;;;;;;;6249353;22;20511;-70
2022/06/08 00:49:32;;;;;;;7.95;6.05;;;;;;;;;;6249400;22;20050;-70
2022/06/08 00:52:00;;;;;;;8.55;6.13;;;;;;;;;;6276365;22;20031;-71
2022/06/08 00:54:31;;;;;;;8.27;5.80;;;;;;;;;;6249034;22;20153;-70
2022/06/08 00:57:01;;;;;;;12.23;7.20;;;;;;;;;;6249359;22;20023;-70
2022/06/08 00:59:29;;;;;;;12.18;7.38;;;;;;;;;;6224007;22;20024;-70
2022/06/08 01:01:56;;;;;;;15.10;7.60;;;;;;;;;;6249166;22;20049;-70
2022/06/08 01:04:27;;;;;;;13.63;6.70;;;;;;;;;;6249105;22;20119;-70
2022/06/08 01:06:56;;;;;;;11.77;6.82;;;;;;;;;;6276306;22;20085;-70
2022/06/08 01:09:28;;;;;;;13.05;7.88;;;;;;;;;;6249191;22;20012;-70
2022/06/08 01:11:58;;;;;;;11.55;7.15;;;;;;;;;;6248781;22;20035;-70
2022/06/08 01:14:27;;;;;;;12.38;6.93;;;;;;;;;;6249030;22;20020;-70
2022/06/08 01:16:57;;;;;;;10.10;5.85;;;;;;;;;;6249028;22;20015;-70
2022/06/08 01:19:26;;;;;;;9.45;6.75;;;;;;;;;;6248966;22;20043;-70
2022/06/08 01:21:56;;;;;;;10.27;6.47;;;;;;;;;;6248980;22;20069;-70
2022/06/08 01:24:32;;;;;;;10.32;5.97;;;;;;;;;;6248630;22;20024;-70
2022/06/08 01:27:05;;;;;;;9.85;6.32;;;;;;;;;;6249093;22;20067;-70
2022/06/08 01:29:42;;;;;;;14.00;7.80;;;;;;;;;;6249196;22;20434;-70
2022/06/08 01:32:22;;;;;;;13.20;6.90;;;;;;;;;;6249060;22;20094;-70
2022/06/08 01:35:08;;;;;;;13.88;7.43;;;;;;;;;;6248917;22;20020;-71
2022/06/08 01:37:54;;;;;;;13.48;7.90;;;;;;;;;;6248961;22;20386;-71
2022/06/08 01:40:34;;;;;;;13.88;7.45;;;;;;;;;;6248998;22;20465;-70
2022/06/08 01:43:25;;;;;;;10.57;6.93;;;;;;;;;;6248651;22;20046;-70
2022/06/08 01:45:56;;;;;;;8.43;7.15;;;;;;;;;;6193909;22;20024;-70
2022/06/08 01:48:23;;;;;;;13.52;7.03;;;;;;;;;;6275907;22;20046;-71
2022/06/08 01:51:00;;;;;;;14.15;7.43;;;;;;;;;;6248650;22;20019;-71
2022/06/08 01:53:31;;;;;;;10.43;7.15;;;;;;;;;;6276029;22;20090;-71
2022/06/08 01:56:15;;;;;;;9.48;7.03;;;;;;;;;;6248704;22;20057;-70
2022/06/08 01:58:58;;;;;;;9.80;7.20;;;;;;;;;;6275574;22;20022;-71
2022/06/08 02:01:36;;;;;;;10.85;7.72;;;;;;;;;;6248741;22;20020;-71
2022/06/08 02:04:19;;;;;;;13.70;8.50;;;;;;;;;;6248795;22;20022;-71
2022/06/08 02:07:22;;;;;;;14.75;9.57;;;;;;;;;;6248523;22;20047;-71
2022/06/08 02:10:09;;;;;;;16.52;9.15;;;;;;;;;;6151942;23;20122;-71
2022/06/08 02:12:38;;;;;;;15.18;8.73;;;;;;;;;;6243072;22;20051;-71
2022/06/08 02:15:13;;;;;;;14.93;8.88;;;;;;;;;;6248301;22;20019;-71
2022/06/08 02:17:51;;;;;;;15.60;9.15;;;;;;;;;;6248317;22;20027;-71
2022/06/08 02:20:41;;;;;;;12.30;9.32;;;;;;;;;;6275737;22;20341;-71
2022/06/08 02:23:16;;;;;;;11.20;8.50;;;;;;;;;;6248357;22;20363;-71
2022/06/08 02:25:57;;;;;;;13.52;9.05;;;;;;;;;;6248380;22;20370;-71
2022/06/08 02:28:29;;;;;;;11.43;8.38;;;;;;;;;;6248541;22;20019;-71
2022/06/08 02:31:03;;;;;;;11.48;8.63;;;;;;;;;;6248410;22;20099;-71
2022/06/08 02:36:19;;;;;;;12.95;8.90;;;;;;;;;;6248468;22;20073;-70
2022/06/08 02:38:52;;;;;;;13.18;8.55;;;;;;;;;;6248648;22;20027;-72
2022/06/08 02:41:21;;;;;;;13.18;8.60;;;;;;;;;;6248587;22;20035;-70
2022/06/08 02:43:52;;;;;;;11.43;8.77;;;;;;;;;;6248592;22;20354;-72
2022/06/08 02:46:44;;;;;;;12.40;8.82;;;;;;;;;;6248325;22;20023;-72
2022/06/08 02:49:12;;;;;;;9.85;8.32;;;;;;;;;;6248272;22;20024;-72
2022/06/08 02:51:44;;;;;;;14.25;8.77;;;;;;;;;;6275710;22;20047;-72
2022/06/08 02:54:24;;;;;;;14.07;9.55;;;;;;;;;;6224057;22;20020;-72
2022/06/08 02:56:56;;;;;;;12.18;9.40;;;;;;;;;;6250523;22;20019;-70
2022/06/08 02:59:45;;;;;;;16.77;10.23;;;;;;;;;;6250019;22;20020;-71
2022/06/08 03:02:29;;;;;;;12.35;10.20;;;;;;;;;;6250375;22;20066;-70
2022/06/08 03:05:08;;;;;;;14.90;11.45;;;;;;;;;;6250084;22;20442;-70
2022/06/08 03:07:41;;;;;;;13.98;9.38;;;;;;;;;;6250401;22;20030;-70
2022/06/08 03:10:10;;;;;;;17.17;12.18;;;;;;;;;;6250197;22;20098;-70
2022/06/08 03:12:40;;;;;;;14.63;9.20;;;;;;;;;;6275832;22;20472;-70
2022/06/08 03:15:09;;;;;;;15.27;9.65;;;;;;;;;;6277423;22;20016;-70
2022/06/08 03:17:38;;;;;;;15.10;10.50;;;;;;;;;;6250251;22;20043;-70
2022/06/08 03:20:09;;;;;;;15.05;10.43;;;;;;;;;;6250107;22;20114;-70
2022/06/08 03:22:39;;;;;;;13.23;10.15;;;;;;;;;;6250249;22;20047;-70
2022/06/08 03:25:07;;;;;;;12.65;9.93;;;;;;;;;;6250010;22;20026;-70
2022/06/08 03:27:39;;;;;;;13.07;9.80;;;;;;;;;;6250039;22;20066;-70
2022/06/08 03:30:08;;;;;;;14.68;10.02;;;;;;;;;;6249969;22;20016;-70
2022/06/08 03:32:39;;;;;;;12.05;10.20;;;;;;;;;;6275577;22;20024;-73
2022/06/08 03:35:09;;;;;;;13.27;10.85;;;;;;;;;;6249842;22;20022;-71
2022/06/08 03:37:39;;;;;;;16.73;11.93;;;;;;;;;;6277180;22;20023;-70
2022/06/08 03:40:08;;;;;;;18.52;11.88;;;;;;;;;;6249687;22;20016;-71
2022/06/08 03:42:35;;;;;;;13.40;9.68;;;;;;;;;;6275218;22;20027;-71
2022/06/08 03:45:03;;;;;;;20.35;14.48;;;;;;;;;;6247342;22;20030;-70
2022/06/08 03:47:33;;;;;;;19.65;13.48;;;;;;;;;;6274492;22;20047;-70
2022/06/08 03:50:03;;;;;;;13.98;10.30;;;;;;;;;;6276857;22;20076;-71
2022/06/08 03:52:33;;;;;;;17.38;11.27;;;;;;;;;;6275296;22;20023;-71
2022/06/08 03:55:02;;;;;;;16.92;12.25;;;;;;;;;;6248693;22;20024;-71
2022/06/08 03:57:31;;;;;;;13.68;11.40;;;;;;;;;;6249229;22;20404;-70
2022/06/08 04:00:04;;;;;;;18.80;12.23;;;;;;;;;;6249461;22;20099;-71
2022/06/08 04:02:44;;;;;;;13.68;10.48;;;;;;;;;;6276851;22;20058;-71
2022/06/08 04:05:14;;;;;;;13.27;10.98;;;;;;;;;;6249592;22;20047;-71
2022/06/08 04:07:43;;;;;;;14.98;10.75;;;;;;;;;;6274821;22;20117;-71
2022/06/08 04:10:11;;;;;;;18.60;11.52;;;;;;;;;;6249669;22;20324;-70
2022/06/08 04:12:39;;;;;;;17.35;11.57;;;;;;;;;;6249764;22;20019;-70
2022/06/08 04:15:07;;;;;;;14.43;11.55;;;;;;;;;;6249406;22;20123;-71
2022/06/08 04:17:36;;;;;;;15.60;11.23;;;;;;;;;;6249725;22;20110;-70
2022/06/08 04:20:04;;;;;;;16.05;10.77;;;;;;;;;;6274861;22;20043;-71
2022/06/08 04:22:32;;;;;;;16.55;10.95;;;;;;;;;;6249661;22;20163;-70
2022/06/08 04:25:01;;;;;;;16.02;10.88;;;;;;;;;;6275017;22;20048;-71
2022/06/08 04:27:29;;;;;;;13.98;11.27;;;;;;;;;;6247991;22;20066;-71
2022/06/08 04:29:56;;;;;;;16.67;11.13;;;;;;;;;;6273679;22;20046;-71
2022/06/08 04:32:25;;;;;;;15.75;11.27;;;;;;;;;;6248160;22;20392;-71
2022/06/08 04:34:53;;;;;;;12.43;10.00;;;;;;;;;;6274346;22;20021;-71
2022/06/08 04:37:22;;;;;;;12.15;10.05;;;;;;;;;;6249366;22;20035;-71
2022/06/08 04:39:53;;;;;;;13.68;9.48;;;;;;;;;;6275086;22;20102;-70
2022/06/08 04:42:25;;;;;;;10.98;9.70;;;;;;;;;;6249086;22;20020;-70
2022/06/08 04:44:56;;;;;;;15.68;10.48;;;;;;;;;;6247156;22;20016;-71
2022/06/08 04:47:23;;;;;;;18.42;13.95;;;;;;;;;;6248136;22;20047;-70
2022/06/08 04:49:51;;;;;;;18.00;12.25;;;;;;;;;;6273730;22;20015;-70
2022/06/08 04:52:20;;;;;;;18.55;13.73;;;;;;;;;;6248240;22;20114;-70
2022/06/08 04:54:47;;;;;;;13.13;10.23;;;;;;;;;;6273557;22;20342;-71
2022/06/08 04:57:17;;;;;;;14.30;9.85;;;;;;;;;;6247789;22;20033;-71
2022/06/08 04:59:47;;;;;;;13.63;10.07;;;;;;;;;;6248665;22;20066;-71
2022/06/08 05:05:19;;;;;;;22.80;14.82;;;;;;;;;;6246963;22;20115;-69
2022/06/08 05:07:48;;;;;;;16.80;11.93;;;;;;;;;;6246725;22;20093;-70
2022/06/08 05:10:18;;;;;;;13.90;11.05;;;;;;;;;;6247545;22;20027;-69
2022/06/08 05:12:46;;;;;;;13.30;10.95;;;;;;;;;;6247663;22;20024;-70
2022/06/08 05:15:22;;;;;;;18.67;10.60;;;;;;;;;;6273393;22;20461;-69
2022/06/08 05:17:50;;;;;;;15.50;10.60;;;;;;;;;;6247288;22;20066;-70
2022/06/08 05:20:18;;;;;;;13.27;10.15;;;;;;;;;;6274525;22;20019;-70
2022/06/08 05:22:47;;;;;;;11.45;9.88;;;;;;;;;;6248803;22;20026;-70
2022/06/08 05:25:16;;;;;;;13.48;10.57;;;;;;;;;;6248659;22;20043;-69
2022/06/08 05:27:45;;;;;;;11.23;9.63;;;;;;;;;;6248779;22;20511;-70
2022/06/08 05:30:13;;;;;;;13.63;9.57;;;;;;;;;;6248459;22;20019;-70
2022/06/08 05:32:43;;;;;;;12.55;8.88;;;;;;;;;;6248754;22;20054;-70
2022/06/08 05:35:12;;;;;;;10.80;9.35;;;;;;;;;;6248662;22;20019;-70
2022/06/08 05:37:40;;;;;;;10.07;8.65;;;;;;;;;;6276077;22;20039;-70
2022/06/08 05:40:08;;;;;;;13.82;9.43;;;;;;;;;;6248769;22;20020;-70
2022/06/08 05:42:36;;;;;;;10.38;8.73;;;;;;;;;;6248670;22;20019;-71
2022/06/08 05:45:06;;;;;;;10.38;8.45;;;;;;;;;;6223699;22;20022;-70
2022/06/08 05:47:34;;;;;;;14.27;9.35;;;;;;;;;;6248417;22;20054;-70
2022/06/08 05:50:02;;;;;;;9.52;7.45;;;;;;;;;;6248582;22;20110;-70
2022/06/08 05:52:31;;;;;;;10.77;7.70;;;;;;;;;;6248570;22;20047;-70
2022/06/08 05:54:59;;;;;;;11.30;8.18;;;;;;;;;;6248574;22;20468;-70
2022/06/08 05:57:27;;;;;;;8.70;7.15;;;;;;;;;;6248292;22;20047;-70
2022/06/08 05:59:55;;;;;;;14.43;7.60;;;;;;;;;;6248242;22;20026;-70
2022/06/08 06:02:22;;;;;;;10.30;6.55;;;;;;;;;;6248512;22;20019;-71
2022/06/08 06:04:50;;;;;;;8.80;6.30;;;;;;;;;;6223588;22;20046;-71
2022/06/08 06:07:20;;;;;;;11.80;6.22;;;;;;;;;;6275589;22;20430;-71
2022/06/08 06:10:02;;;;;;;6.72;6.00;;;;;;;;;;6248715;22;20016;-71
2022/06/08 06:12:34;;;;;;;10.30;6.00;;;;;;;;;;6248603;22;20024;-71
2022/06/08 06:15:06;;;;;;;8.45;5.95;;;;;;;;;;6248609;22;20069;-71
2022/06/08 06:17:34;;;;;;;9.00;5.68;;;;;;;;;;6248495;22;20446;-71
2022/06/08 06:20:02;;;;;;;12.02;7.43;;;;;;;;;;6248465;22;20102;-71
2022/06/08 06:22:41;;;;;;;9.93;6.28;;;;;;;;;;6248486;22;20046;-72
2022/06/08 06:25:27;;;;;;;12.73;5.63;;;;;;;;;;6275107;22;20031;-69
2022/06/08 06:28:18;;;;;;;11.68;5.40;;;;;;;;;;6259251;22;20062;-72
2022/06/08 06:31:07;;;;;;;9.55;4.68;;;;;;;;;;6275360;22;20050;-71
2022/06/08 06:33:46;;;;;;;5.55;4.30;;;;;;;;;;6249100;22;20015;-70
2022/06/08 06:36:14;;;;;;;8.20;4.93;;;;;;;;;;6250926;22;20016;-71
2022/06/08 06:38:41;;;;;;;9.68;5.97;;;;;;;;;;6250430;22;20020;-71
2022/06/08 06:41:10;;;;;;;7.25;4.28;;;;;;;;;;6250212;22;20012;-71
2022/06/08 06:43:37;;;;;;;5.75;4.63;;;;;;;;;;6250019;22;20016;-72
2022/06/08 06:46:20;;;;;;;7.68;5.95;;;;;;;;;;6249968;22;20450;-72
2022/06/08 06:49:23;;;;;;;7.30;4.18;;;;;;;;;;6243955;23;20056;-71
2022/06/08 06:51:54;;;;;;;10.13;5.18;;;;;;;;;;6244368;22;20410;-72
2022/06/08 06:54:24;;;;;;;8.05;5.00;;;;;;;;;;6250413;22;20023;-72
2022/06/08 06:56:52;;;;;;;7.70;5.55;;;;;;;;;;6250303;22;20027;-72
2022/06/08 06:59:25;;;;;;;11.63;5.80;;;;;;;;;;6250136;22;20024;-72
2022/06/08 07:01:53;;;;;;;6.22;4.43;;;;;;;;;;6249928;22;20020;-71
2022/06/08 07:04:22;;;;;;;8.13;4.20;;;;;;;;;;6250191;22;20024;-71
2022/06/08 07:06:50;;;;;;;8.15;4.57;;;;;;;;;;6249985;22;20023;-73
2022/06/08 07:09:17;;;;;;;9.07;3.58;;;;;;;;;;6250442;22;20438;-73
2022/06/08 07:11:46;;;;;;;5.38;3.42;;;;;;;;;;6250126;22;20019;-73
2022/06/08 07:14:27;;;;;;;4.97;2.58;;;;;;;;;;6250100;22;20039;-71
2022/06/08 07:17:01;;;;;;;3.60;2.40;;;;;;;;;;6250066;22;20023;-73
2022/06/08 07:19:32;;;;;;;6.70;4.72;;;;;;;;;;6250105;22;20345;-71
2022/06/08 07:22:00;;;;;;;5.10;2.47;;;;;;;;;;6250236;22;20279;-73
2022/06/08 07:24:30;;;;;;;4.85;2.97;;;;;;;;;;6277347;22;20022;-73
2022/06/08 07:26:58;;;;;;;6.75;4.15;;;;;;;;;;6277170;22;20015;-73
2022/06/08 07:29:26;;;;;;;6.93;3.58;;;;;;;;;;6277261;22;20012;-72
2022/06/08 07:31:53;;;;;;;6.97;2.65;;;;;;;;;;6277100;22;20504;-72
2022/06/08 07:34:21;;;;;;;6.22;3.08;;;;;;;;;;6277114;22;20541;-72
2022/06/08 07:36:49;;;;;;;6.05;3.72;;;;;;;;;;6277327;22;20016;-72
2022/06/08 07:39:19;;;;;;;4.45;2.85;;;;;;;;;;6249989;22;20023;-73
2022/06/08 07:41:48;;;;;;;3.42;2.40;;;;;;;;;;6276452;22;20028;-72
2022/06/08 07:44:15;;;;;;;4.32;2.33;;;;;;;;;;6276965;22;20107;-73
2022/06/08 07:46:43;;;;;;;3.97;2.20;;;;;;;;;;6277174;22;20058;-73
2022/06/08 07:52:01;;;;;;;2.38;2.17;;;;;;;;;;6277009;22;20035;-72
2022/06/08 07:54:30;;;;;;;3.65;2.00;;;;;;;;;;6276900;22;20015;-73
2022/06/08 07:56:59;;;;;;;3.50;2.40;;;;;;;;;;6276974;22;20018;-73
2022/06/08 07:59:28;;;;;;;3.65;3.13;;;;;;;;;;6276717;22;20015;-74
2022/06/08 08:01:57;;;;;;;4.13;2.45;;;;;;;;;;6249950;22;20019;-74
2022/06/08 08:04:25;;;;;;;3.60;2.55;;;;;;;;;;6276964;22;20016;-73
2022/06/08 08:06:52;;;;;;;4.00;2.15;;;;;;;;;;6277034;22;20357;-75
2022/06/08 08:09:22;;;;;;;4.50;3.17;;;;;;;;;;6276788;22;20091;-75
2022/06/08 08:11:51;;;;;;;5.97;3.90;;;;;;;;;;6276796;22;20015;-71
2022/06/08 08:14:20;;;;;;;9.23;4.88;;;;;;;;;;6249852;22;20323;-71
2022/06/08 08:16:48;;;;;;;5.97;2.88;;;;;;;;;;6276869;22;20023;-74
2022/06/08 08:19:17;;;;;;;2.15;1.95;;;;;;;;;;6276790;22;20015;-73
2022/06/08 08:21:45;;;;;;;5.15;2.50;;;;;;;;;;6276782;22;20020;-73
2022/06/08 08:24:13;;;;;;;4.80;2.25;;;;;;;;;;6276670;22;20019;-71
2022/06/08 08:26:42;;;;;;;4.40;2.50;;;;;;;;;;6276402;22;20046;-73
2022/06/08 08:29:09;;;;;;;5.07;2.50;;;;;;;;;;6276639;22;20020;-73
2022/06/08 08:31:37;;;;;;;3.47;2.40;;;;;;;;;;6276654;22;20074;-72
2022/06/08 08:34:05;;;;;;;3.67;2.10;;;;;;;;;;6276617;22;20015;-74
2022/06/08 08:36:33;;;;;;;4.95;2.38;;;;;;;;;;6277058;22;20043;-72
2022/06/08 08:39:00;;;;;;;4.35;2.30;;;;;;;;;;6276598;22;20020;-72
2022/06/08 08:44:28;;;;;;;2.83;2.03;;;;;;;;;;6276577;22;20075;-71
2022/06/08 08:47:16;;;;;;;3.42;2.20;;;;;;;;;;6276824;22;20334;-74
2022/06/08 08:49:48;;;;;;;3.20;2.08;;;;;;;;;;6276183;22;20015;-73
2022/06/08 08:52:22;;;;;;;3.42;2.13;;;;;;;;;;6276412;22;20481;-74
2022/06/08 08:54:49;;;;;;;;;;;;;;;;;;6276909;22;20031;-74
2022/06/08 08:57:30;;;;;;;2.78;1.95;;;;;;;;;;6249678;22;19915;-72
2022/06/08 08:59:59;;;;;;;4.43;2.13;;;;;;;;;;6276253;22;20015;-72
2022/06/08 09:05:17;;;;;;;9.80;2.88;;;;;;;;;;6276360;22;20384;-71
2022/06/08 09:07:45;;;;;;;9.13;6.40;;;;;;;;;;6276318;22;20091;-72
2022/06/08 09:10:21;;;;;;;4.97;3.88;;;;;;;;;;6276236;22;20016;-72
2022/06/08 09:12:49;;;;;;;4.13;3.00;;;;;;;;;;6276398;22;20091;-73
2022/06/08 09:15:18;;;;;;;7.07;5.00;;;;;;;;;;6276574;22;20012;-74
2022/06/08 09:17:56;;;;;;;3.33;2.30;;;;;;;;;;6276135;22;20019;-74
2022/06/08 09:20:26;;;;;;;3.22;2.75;;;;;;;;;;6249233;22;20077;-72
2022/06/08 09:22:55;;;;;;;5.00;3.95;;;;;;;;;;6249785;22;20019;-72
2022/06/08 09:25:26;;;;;;;4.72;2.90;;;;;;;;;;6276140;22;20011;-73
2022/06/08 09:27:55;;;;;;;5.90;2.45;;;;;;;;;;6276103;22;20044;-74
2022/06/08 09:30:26;;;;;;;3.78;2.45;;;;;;;;;;6276244;22;20517;-73
2022/06/08 09:33:14;;;;;;;5.28;2.55;;;;;;;;;;6248976;22;20020;-73
2022/06/08 09:35:52;;;;;;;4.00;2.60;;;;;;;;;;6276066;22;20020;-74
2022/06/08 09:38:22;;;;;;;5.47;2.60;;;;;;;;;;6276471;22;20023;-73
2022/06/08 09:41:08;;;;;;;3.10;2.30;;;;;;;;;;6276112;22;20020;-73
2022/06/08 09:43:42;;;;;;;4.32;2.55;;;;;;;;;;6275995;22;20020;-72
2022/06/08 09:46:10;;;;;;;2.25;1.95;;;;;;;;;;6275053;22;20061;-72
2022/06/08 09:51:51;;;;;;;3.20;2.35;;;;;;;;;;6276008;22;20054;-73
2022/06/08 09:54:37;;;;;;;6.88;4.28;;;;;;;;;;6276044;22;20465;-72
2022/06/08 09:57:08;;;;;;;5.25;3.63;;;;;;;;;;6276189;22;20020;-73
2022/06/08 09:59:41;;;;;;;4.90;2.20;;;;;;;;;;6275749;22;20511;-72
2022/06/08 10:02:35;;;;;;;5.03;2.50;;;;;;;;;;6275964;22;20461;-72
2022/06/08 10:05:18;;;;;;;6.35;3.85;;;;;;;;;;6229973;22;20294;-72
2022/06/08 10:07:56;;;;;;;8.35;5.25;;;;;;;;;;6275714;22;20042;-73
2022/06/08 10:10:27;;;;;;;9.63;6.93;;;;;;;;;;6275853;22;20016;-72
2022/06/08 10:12:58;;;;;;;9.13;5.57;;;;;;;;;;6275888;22;20019;-72
2022/06/08 10:15:34;;;;;;;6.82;5.03;;;;;;;;;;6275928;22;20022;-72
2022/06/08 10:18:22;;;;;;;4.35;2.63;;;;;;;;;;6275961;22;20019;-72
2022/06/08 10:21:01;;;;;;;3.08;2.67;;;;;;;;;;6275858;22;20024;-72
2022/06/08 10:23:32;;;;;;;5.25;2.42;;;;;;;;;;6249257;22;20020;-72
2022/06/08 10:26:01;;;;;;;2.80;2.05;;;;;;;;;;6279050;22;20477;-73
2022/06/08 10:29:01;;;;;;;3.45;2.22;;;;;;;;;;6277380;22;20019;-73
2022/06/08 10:31:35;;;;;;;5.05;3.25;;;;;;;;;;6209840;22;20019;-73
2022/06/08 10:34:23;;;;;;;3.58;3.28;;;;;;;;;;6248679;22;20099;-72
2022/06/08 10:36:55;;;;;;;3.30;2.65;;;;;;;;;;6248461;22;20442;-72
2022/06/08 10:39:23;;;;;;;4.55;2.20;;;;;;;;;;6248819;22;20401;-73
2022/06/08 10:44:58;;;;;;;2.45;1.90;;;;;;;;;;6275992;22;20022;-74
2022/06/08 10:47:27;;;;;;;3.25;1.80;;;;;;;;;;6275395;22;20022;-74
2022/06/08 10:49:58;;;;;;;9.60;2.53;;;;;;;;;;6275678;22;20020;-73
2022/06/08 10:52:29;;;;;;;2.08;1.90;;;;;;;;;;6275625;22;20086;-72
2022/06/08 10:55:17;;;;;;;4.03;1.70;;;;;;;;;;6275773;22;20016;-73
2022/06/08 10:58:03;;;;;;;2.38;1.85;;;;;;;;;;6275560;22;20020;-72
2022/06/08 11:00:43;;;;;;;3.63;1.75;;;;;;;;;;6275367;22;20016;-73
2022/06/08 11:03:29;;;;;;;3.05;2.05;;;;;;;;;;6275392;22;20039;-73
2022/06/08 11:05:57;;;;;;;4.35;2.00;;;;;;;;;;6275521;22;20016;-72
2022/06/08 11:08:24;;;;;;;2.55;1.95;;;;;;;;;;6275211;22;20023;-72
2022/06/08 11:11:00;;;;;;;3.85;2.38;;;;;;;;;;6275452;22;20022;-73
2022/06/08 11:13:28;;;;;;;3.60;1.80;;;;;;;;;;6275474;22;20090;-72
2022/06/08 11:16:06;;;;;;;4.68;2.50;;;;;;;;;;6249260;22;20016;-73
2022/06/08 11:18:46;;;;;;;3.28;2.10;;;;;;;;;;6250162;22;20023;-73
2022/06/08 11:21:14;;;;;;;2.70;1.90;;;;;;;;;;6277389;22;20073;-72
2022/06/08 11:23:47;;;;;;;4.18;2.40;;;;;;;;;;6277493;22;20315;-73
2022/06/08 11:26:17;;;;;;;3.17;2.20;;;;;;;;;;6277077;22;20039;-72
2022/06/08 11:28:45;;;;;;;4.28;2.15;;;;;;;;;;6276933;22;20016;-73
2022/06/08 11:31:24;;;;;;;3.30;2.15;;;;;;;;;;6277053;22;20039;-72
2022/06/08 11:33:55;;;;;;;4.97;2.42;;;;;;;;;;6277175;22;20084;-72
2022/06/08 11:36:40;;;;;;;3.95;2.50;;;;;;;;;;6277088;22;20087;-72
2022/06/08 11:39:37;;;;;;;3.35;2.50;;;;;;;;;;6277037;22;20457;-72
2022/06/08 11:42:24;;;;;;;5.20;2.65;;;;;;;;;;6251827;22;20015;-73
2022/06/08 11:44:56;;;;;;;4.00;2.40;;;;;;;;;;6277512;22;20015;-72
2022/06/08 11:47:44;;;;;;;3.97;3.00;;;;;;;;;;6276885;22;20012;-73
2022/06/08 11:50:14;;;;;;;3.95;3.15;;;;;;;;;;6256806;22;20038;-73
2022/06/08 11:52:44;;;;;;;3.97;2.15;;;;;;;;;;6249956;22;20102;-73
2022/06/08 11:55:21;;;;;;;2.28;2.00;;;;;;;;;;6276757;22;20367;-73
2022/06/08 11:57:48;;;;;;;4.82;2.33;;;;;;;;;;6276970;22;20334;-72
2022/06/08 12:00:19;;;;;;;3.35;2.00;;;;;;;;;;6276745;22;20020;-72
2022/06/08 12:02:49;;;;;;;3.22;1.88;;;;;;;;;;6276882;22;20046;-72
2022/06/08 12:05:20;;;;;;;7.18;2.60;;;;;;;;;;6249544;22;20015;-72
2022/06/08 12:07:53;;;;;;;3.08;2.25;;;;;;;;;;6276946;22;20020;-72
2022/06/08 12:10:24;;;;;;;4.95;2.45;;;;;;;;;;6276878;22;20020;-72
2022/06/08 12:12:53;;;;;;;4.00;2.20;;;;;;;;;;6249590;22;20015;-72
2022/06/08 12:15:39;;;;;;;2.92;2.17;;;;;;;;;;6276663;22;20012;-73
2022/06/08 12:18:24;;;;;;;2.03;1.83;;;;;;;;;;6276780;22;20015;-73
2022/06/08 12:21:04;;;;;;;3.25;2.28;;;;;;;;;;6249608;22;20050;-73
2022/06/08 12:23:41;;;;;;;3.05;2.30;;;;;;;;;;6276650;22;20015;-72
2022/06/08 12:26:17;;;;;;;2.88;2.17;;;;;;;;;;6276653;22;20015;-73
2022/06/08 12:28:46;;;;;;;3.28;2.10;;;;;;;;;;6276374;22;20070;-73
2022/06/08 12:31:27;;;;;;;4.22;2.78;;;;;;;;;;6251728;22;20015;-73
2022/06/08 12:33:55;;;;;;;2.17;2.03;;;;;;;;;;6276497;22;20065;-73
2022/06/08 12:36:24;;;;;;;3.58;2.75;;;;;;;;;;6249435;22;20023;-72
2022/06/08 12:39:00;;;;;;;7.65;4.20;;;;;;;;;;6276518;22;20019;-72
2022/06/08 12:42:00;;;;;;;3.03;2.70;;;;;;;;;;6249436;22;20011;-72
2022/06/08 12:44:31;;;;;;;4.57;2.83;;;;;;;;;;6210260;22;20019;-73
2022/06/08 12:47:01;;;;;;;2.85;1.98;;;;;;;;;;6276522;22;20146;-73
2022/06/08 12:49:42;;;;;;;6.07;2.00;;;;;;;;;;6276394;22;20020;-73
2022/06/08 12:52:18;;;;;;;3.97;2.00;;;;;;;;;;6276383;22;20053;-73
2022/06/08 12:54:48;;;;;;;3.75;2.45;;;;;;;;;;6249131;22;20457;-73
2022/06/08 12:57:23;;;;;;;2.35;1.90;;;;;;;;;;6276172;22;20018;-72
2022/06/08 12:59:55;;;;;;;5.05;2.55;;;;;;;;;;6275975;22;20464;-72
2022/06/08 13:02:35;;;;;;;4.25;2.00;;;;;;;;;;6276281;22;20553;-72
2022/06/08 13:05:04;;;;;;;3.03;2.00;;;;;;;;;;6276353;22;20319;-72
2022/06/08 13:07:35;;;;;;;3.33;2.22;;;;;;;;;;6276290;22;20012;-72
2022/06/08 13:10:03;;;;;;;2.70;2.40;;;;;;;;;;6276164;22;20022;-73
2022/06/08 13:12:33;;;;;;;2.47;1.90;;;;;;;;;;6276277;22;20012;-73
2022/06/08 13:15:01;;;;;;;1.92;1.58;;;;;;;;;;6276305;22;20016;-72
2022/06/08 13:17:29;;;;;;;2.17;1.80;;;;;;;;;;6276222;22;20012;-72
2022/06/08 13:19:59;;;;;;;3.92;1.95;;;;;;;;;;6276601;22;20027;-72
2022/06/08 13:22:27;;;;;;;3.72;1.90;;;;;;;;;;6276143;22;20359;-72
2022/06/08 13:24:55;;;;;;;5.95;2.00;;;;;;;;;;6276363;22;20023;-73
2022/06/08 13:27:23;;;;;;;2.22;1.90;;;;;;;;;;6276246;22;20020;-73
2022/06/08 13:29:50;;;;;;;3.22;2.00;;;;;;;;;;6276151;22;20020;-72
2022/06/08 13:32:19;;;;;;;2.67;1.77;;;;;;;;;;6276002;22;20046;-72
2022/06/08 13:34:48;;;;;;;2.00;1.70;;;;;;;;;;6276448;22;20019;-73
2022/06/08 13:37:39;;;;;;;2.78;1.52;;;;;;;;;;6248924;22;20094;-72
2022/06/08 13:40:10;;;;;;;2.47;1.40;;;;;;;;;;6275896;22;20384;-72
2022/06/08 13:42:39;;;;;;;4.25;2.00;;;;;;;;;;6275929;22;20081;-72
2022/06/08 13:45:08;;;;;;;3.22;2.20;;;;;;;;;;6275866;22;20019;-74
2022/06/08 13:47:36;;;;;;;3.63;1.80;;;;;;;;;;6275683;22;20019;-74
2022/06/08 13:50:07;;;;;;;1.77;1.50;;;;;;;;;;6275888;22;20093;-74
2022/06/08 13:52:35;;;;;;;2.88;1.10;;;;;;;;;;6248625;22;20016;-74
2022/06/08 13:55:07;;;;;;;3.60;1.55;;;;;;;;;;6275837;22;20450;-72
2022/06/08 13:57:35;;;;;;;3.28;1.70;;;;;;;;;;6275760;22;20015;-72
2022/06/08 14:00:05;;;;;;;1.40;0.98;;;;;;;;;;6248828;22;20019;-77
2022/06/08 14:02:47;;;;;;;1.73;1.38;;;;;;;;;;6275633;22;20023;-79
2022/06/08 14:05:17;;;;;;;2.03;1.38;;;;;;;;;;6248732;22;20020;-74
2022/06/08 14:13:19;;;;;;;2.80;1.60;;;;;;;;;;6275610;22;20579;-74
2022/06/08 14:15:47;;;;;;;4.05;1.60;;;;;;;;;;6275655;22;20016;-74
2022/06/08 14:18:20;;;;;;;1.60;1.50;;;;;;;;;;6275696;22;20016;-73
2022/06/08 14:20:48;;;;;;;2.55;1.75;;;;;;;;;;6276062;22;20457;-73
2022/06/08 14:23:22;;;;;;;;;;;;;;;;;;6276178;22;20016;-73
2022/06/08 14:25:50;;;;;;;2.28;1.90;;;;;;;;;;6275346;22;19922;-74
2022/06/08 14:28:39;;;;;;;4.10;2.00;;;;;;;;;;6275321;22;20011;-74
2022/06/08 14:31:11;;;;;;;4.65;2.03;;;;;;;;;;6248088;22;20346;-73
2022/06/08 14:33:38;;;;;;;7.57;2.40;;;;;;;;;;6275277;22;20012;-73
2022/06/08 14:36:06;;;;;;;12.23;5.97;;;;;;;;;;6275230;22;20433;-74
2022/06/08 14:38:53;;;;;;;4.38;2.60;;;;;;;;;;6273421;22;20020;-74
2022/06/08 14:41:37;;;;;;;5.10;2.53;;;;;;;;;;6274123;22;20459;-73
2022/06/08 14:44:12;;;;;;;4.43;2.22;;;;;;;;;;6273638;22;20488;-74
2022/06/08 14:46:52;;;;;;;5.03;2.20;;;;;;;;;;6248362;22;20026;-72
2022/06/08 14:49:23;;;;;;;4.05;1.80;;;;;;;;;;6275433;22;20067;-73
2022/06/08 14:51:52;;;;;;;6.68;2.53;;;;;;;;;;6276785;22;20114;-73
2022/06/08 14:54:22;;;;;;;5.95;2.25;;;;;;;;;;6277386;22;20015;-73
2022/06/08 14:56:57;;;;;;;2.92;1.80;;;;;;;;;;6276857;22;20456;-73
2022/06/08 14:59:25;;;;;;;6.55;2.00;;;;;;;;;;6276993;22;20026;-72
2022/06/08 15:01:57;;;;;;;4.40;1.80;;;;;;;;;;6274258;22;20023;-73
2022/06/08 15:04:26;;;;;;;3.78;1.98;;;;;;;;;;6276655;22;20016;-71
2022/06/08 15:06:54;;;;;;;2.67;2.30;;;;;;;;;;6274558;22;20026;-72
2022/06/08 15:09:23;;;;;;;3.53;1.90;;;;;;;;;;6276881;22;20101;-72
2022/06/08 15:12:00;;;;;;;3.10;1.77;;;;;;;;;;6276846;22;20016;-72
2022/06/08 15:14:28;;;;;;;2.35;1.70;;;;;;;;;;6275997;22;20042;-72
2022/06/08 15:16:56;;;;;;;1.75;1.60;;;;;;;;;;6249018;22;20020;-73
2022/06/08 15:19:29;;;;;;;3.17;1.90;;;;;;;;;;6275692;22;20027;-72
2022/06/08 15:22:04;;;;;;;5.32;2.25;;;;;;;;;;6277070;22;20073;-74
2022/06/08 15:24:31;;;;;;;3.65;2.10;;;;;;;;;;6277697;22;20339;-71
2022/06/08 15:27:01;;;;;;;5.43;1.92;;;;;;;;;;6277692;22;20334;-74
2022/06/08 15:29:31;;;;;;;5.53;2.20;;;;;;;;;;6277014;22;20391;-72
2022/06/08 15:31:59;;;;;;;4.65;2.30;;;;;;;;;;6277097;22;20011;-73